sensor_id;sensor_type;location;lat;lon;timestamp;P1;durP1;ratioP1;P2;durP2;ratioP2
52456;SDS011;38369;52.840;7.082;2023-04-24T00:00:55;1.30;;;1.20;;
52456;SDS011;38369;52.840;7.082;2023-04-24T00:03:22;1.40;;;1.20;;
52456;SDS011;38369;52.840;7.082;2023-04-24T00:05:49;1.75;;;1.50;;
52456;SDS011;38369;52.840;7.082;2023-04-24T00:08:16;2.35;;;1.73;;
52456;SDS011;38369;52.840;7.082;2023-04-24T00:10:42;2.80;;;2.05;;
52456;SDS011;38369;52.840;7.082;2023-04-24T00:13:08;2.80;;;2.38;;
52456;SDS011;38369;52.840;7.082;2023-04-24T00:15:34;3.70;;;2.40;;
52456;SDS011;38369;52.840;7.082;2023-04-24T00:18:00;2.80;;;2.40;;
52456;SDS011;38369;52.840;7.082;2023-04-24T00:20:26;2.80;;;2.05;;
52456;SDS011;38369;52.840;7.082;2023-04-24T00:22:57;2.67;;;2.40;;
52456;SDS011;38369;52.840;7.082;2023-04-24T00:25:23;3.55;;;3.15;;
52456;SDS011;38369;52.840;7.082;2023-04-24T00:27:49;3.20;;;2.88;;
52456;SDS011;38369;52.840;7.082;2023-04-24T00:30:15;4.03;;;3.58;;
52456;SDS011;38369;52.840;7.082;2023-04-24T00:32:41;5.07;;;3.40;;
52456;SDS011;38369;52.840;7.082;2023-04-24T00:35:08;4.20;;;3.17;;
52456;SDS011;38369;52.840;7.082;2023-04-24T00:37:34;5.07;;;2.95;;
52456;SDS011;38369;52.840;7.082;2023-04-24T00:40:00;3.92;;;2.05;;
52456;SDS011;38369;52.840;7.082;2023-04-24T00:42:27;2.50;;;1.85;;
52456;SDS011;38369;52.840;7.082;2023-04-24T00:44:53;2.03;;;1.75;;
52456;SDS011;38369;52.840;7.082;2023-04-24T00:47:19;5.45;;;2.35;;
52456;SDS011;38369;52.840;7.082;2023-04-24T00:49:47;3.08;;;2.25;;
52456;SDS011;38369;52.840;7.082;2023-04-24T00:52:13;2.92;;;2.38;;
52456;SDS011;38369;52.840;7.082;2023-04-24T00:54:43;3.30;;;2.17;;
52456;SDS011;38369;52.840;7.082;2023-04-24T00:57:10;3.40;;;2.78;;
52456;SDS011;38369;52.840;7.082;2023-04-24T00:59:36;3.35;;;2.53;;
52456;SDS011;38369;52.840;7.082;2023-04-24T01:02:02;4.10;;;3.60;;
52456;SDS011;38369;52.840;7.082;2023-04-24T01:04:28;4.50;;;3.65;;
52456;SDS011;38369;52.840;7.082;2023-04-24T01:06:55;4.90;;;3.80;;
52456;SDS011;38369;52.840;7.082;2023-04-24T01:09:21;4.13;;;3.50;;
52456;SDS011;38369;52.840;7.082;2023-04-24T01:11:49;5.15;;;4.65;;
52456;SDS011;38369;52.840;7.082;2023-04-24T01:14:16;4.93;;;4.43;;
52456;SDS011;38369;52.840;7.082;2023-04-24T01:16:42;5.65;;;4.10;;
52456;SDS011;38369;52.840;7.082;2023-04-24T01:19:08;5.03;;;4.53;;
52456;SDS011;38369;52.840;7.082;2023-04-24T01:21:36;5.35;;;4.65;;
52456;SDS011;38369;52.840;7.082;2023-04-24T01:24:03;4.43;;;3.80;;
52456;SDS011;38369;52.840;7.082;2023-04-24T01:26:29;4.25;;;3.85;;
52456;SDS011;38369;52.840;7.082;2023-04-24T01:28:55;5.30;;;4.80;;
52456;SDS011;38369;52.840;7.082;2023-04-24T01:31:21;4.65;;;4.13;;
52456;SDS011;38369;52.840;7.082;2023-04-24T01:33:48;6.35;;;4.72;;
52456;SDS011;38369;52.840;7.082;2023-04-24T01:36:14;5.85;;;4.45;;
52456;SDS011;38369;52.840;7.082;2023-04-24T01:38:42;5.85;;;5.28;;
52456;SDS011;38369;52.840;7.082;2023-04-24T01:41:08;8.15;;;6.03;;
52456;SDS011;38369;52.840;7.082;2023-04-24T01:43:34;8.10;;;6.20;;
52456;SDS011;38369;52.840;7.082;2023-04-24T01:46:00;6.78;;;5.97;;
52456;SDS011;38369;52.840;7.082;2023-04-24T01:48:26;6.95;;;6.00;;
52456;SDS011;38369;52.840;7.082;2023-04-24T01:50:52;8.77;;;7.13;;
52456;SDS011;38369;52.840;7.082;2023-04-24T01:53:19;8.70;;;6.60;;
52456;SDS011;38369;52.840;7.082;2023-04-24T01:55:45;8.13;;;7.32;;
52456;SDS011;38369;52.840;7.082;2023-04-24T01:58:11;8.18;;;7.10;;
52456;SDS011;38369;52.840;7.082;2023-04-24T02:00:37;11.10;;;7.50;;
52456;SDS011;38369;52.840;7.082;2023-04-24T02:03:03;8.98;;;7.38;;
52456;SDS011;38369;52.840;7.082;2023-04-24T02:05:29;11.32;;;8.73;;
52456;SDS011;38369;52.840;7.082;2023-04-24T02:07:55;9.73;;;8.50;;
52456;SDS011;38369;52.840;7.082;2023-04-24T02:10:21;9.35;;;7.18;;
52456;SDS011;38369;52.840;7.082;2023-04-24T02:12:47;8.65;;;7.45;;
52456;SDS011;38369;52.840;7.082;2023-04-24T02:15:13;8.77;;;7.30;;
52456;SDS011;38369;52.840;7.082;2023-04-24T02:17:40;8.80;;;7.55;;
52456;SDS011;38369;52.840;7.082;2023-04-24T02:20:06;10.65;;;7.68;;
52456;SDS011;38369;52.840;7.082;2023-04-24T02:22:32;7.80;;;6.97;;
52456;SDS011;38369;52.840;7.082;2023-04-24T02:24:58;7.03;;;6.20;;
52456;SDS011;38369;52.840;7.082;2023-04-24T02:27:25;9.88;;;7.18;;
52456;SDS011;38369;52.840;7.082;2023-04-24T02:29:51;7.72;;;5.90;;
52456;SDS011;38369;52.840;7.082;2023-04-24T02:32:17;6.90;;;6.20;;
52456;SDS011;38369;52.840;7.082;2023-04-24T02:34:43;7.50;;;6.63;;
52456;SDS011;38369;52.840;7.082;2023-04-24T02:37:09;7.70;;;6.45;;
52456;SDS011;38369;52.840;7.082;2023-04-24T02:39:35;7.63;;;6.82;;
52456;SDS011;38369;52.840;7.082;2023-04-24T02:42:01;7.65;;;6.63;;
52456;SDS011;38369;52.840;7.082;2023-04-24T02:44:27;8.07;;;7.15;;
52456;SDS011;38369;52.840;7.082;2023-04-24T02:46:54;7.38;;;6.10;;
52456;SDS011;38369;52.840;7.082;2023-04-24T02:49:20;9.10;;;7.13;;
52456;SDS011;38369;52.840;7.082;2023-04-24T02:51:46;8.20;;;7.30;;
52456;SDS011;38369;52.840;7.082;2023-04-24T02:54:12;6.95;;;6.25;;
52456;SDS011;38369;52.840;7.082;2023-04-24T02:56:38;7.15;;;6.45;;
52456;SDS011;38369;52.840;7.082;2023-04-24T02:59:04;6.00;;;5.35;;
52456;SDS011;38369;52.840;7.082;2023-04-24T03:01:30;7.40;;;6.05;;
52456;SDS011;38369;52.840;7.082;2023-04-24T03:03:56;8.27;;;6.82;;
52456;SDS011;38369;52.840;7.082;2023-04-24T03:06:23;8.48;;;6.30;;
52456;SDS011;38369;52.840;7.082;2023-04-24T03:08:49;9.73;;;6.82;;
52456;SDS011;38369;52.840;7.082;2023-04-24T03:11:15;9.07;;;7.32;;
52456;SDS011;38369;52.840;7.082;2023-04-24T03:13:41;8.82;;;6.15;;
52456;SDS011;38369;52.840;7.082;2023-04-24T03:16:07;11.80;;;6.72;;
52456;SDS011;38369;52.840;7.082;2023-04-24T03:18:33;11.93;;;6.70;;
52456;SDS011;38369;52.840;7.082;2023-04-24T03:20:59;8.40;;;5.50;;
52456;SDS011;38369;52.840;7.082;2023-04-24T03:23:26;8.35;;;5.18;;
52456;SDS011;38369;52.840;7.082;2023-04-24T03:25:52;9.50;;;5.80;;
52456;SDS011;38369;52.840;7.082;2023-04-24T03:28:19;5.85;;;5.10;;
52456;SDS011;38369;52.840;7.082;2023-04-24T03:30:45;7.50;;;5.65;;
52456;SDS011;38369;52.840;7.082;2023-04-24T03:33:11;6.15;;;5.05;;
52456;SDS011;38369;52.840;7.082;2023-04-24T03:35:37;7.35;;;5.15;;
52456;SDS011;38369;52.840;7.082;2023-04-24T03:38:03;5.45;;;4.80;;
52456;SDS011;38369;52.840;7.082;2023-04-24T03:40:30;5.63;;;4.13;;
52456;SDS011;38369;52.840;7.082;2023-04-24T03:42:58;7.20;;;5.88;;
52456;SDS011;38369;52.840;7.082;2023-04-24T03:45:24;6.32;;;5.20;;
52456;SDS011;38369;52.840;7.082;2023-04-24T03:47:50;7.15;;;5.07;;
52456;SDS011;38369;52.840;7.082;2023-04-24T03:50:16;6.13;;;5.40;;
52456;SDS011;38369;52.840;7.082;2023-04-24T03:52:42;6.57;;;5.40;;
52456;SDS011;38369;52.840;7.082;2023-04-24T03:55:08;6.18;;;5.20;;
52456;SDS011;38369;52.840;7.082;2023-04-24T03:57:38;5.75;;;5.15;;
52456;SDS011;38369;52.840;7.082;2023-04-24T04:00:04;7.32;;;5.05;;
52456;SDS011;38369;52.840;7.082;2023-04-24T04:02:31;6.30;;;5.15;;
52456;SDS011;38369;52.840;7.082;2023-04-24T04:04:57;5.80;;;4.88;;
52456;SDS011;38369;52.840;7.082;2023-04-24T04:07:23;7.32;;;5.50;;
52456;SDS011;38369;52.840;7.082;2023-04-24T04:09:49;7.00;;;6.22;;
52456;SDS011;38369;52.840;7.082;2023-04-24T04:12:15;8.25;;;6.20;;
52456;SDS011;38369;52.840;7.082;2023-04-24T04:14:41;8.10;;;6.72;;
52456;SDS011;38369;52.840;7.082;2023-04-24T04:17:07;8.77;;;6.22;;
52456;SDS011;38369;52.840;7.082;2023-04-24T04:19:33;9.02;;;6.85;;
52456;SDS011;38369;52.840;7.082;2023-04-24T04:21:59;10.65;;;8.05;;
52456;SDS011;38369;52.840;7.082;2023-04-24T04:24:25;13.35;;;8.48;;
52456;SDS011;38369;52.840;7.082;2023-04-24T04:26:52;9.55;;;7.70;;
52456;SDS011;38369;52.840;7.082;2023-04-24T04:29:21;9.65;;;7.07;;
52456;SDS011;38369;52.840;7.082;2023-04-24T04:31:47;12.18;;;8.05;;
52456;SDS011;38369;52.840;7.082;2023-04-24T04:34:14;10.32;;;8.40;;
52456;SDS011;38369;52.840;7.082;2023-04-24T04:36:43;10.50;;;8.15;;
52456;SDS011;38369;52.840;7.082;2023-04-24T04:39:09;12.45;;;8.75;;
52456;SDS011;38369;52.840;7.082;2023-04-24T04:41:35;11.05;;;8.75;;
52456;SDS011;38369;52.840;7.082;2023-04-24T04:44:02;12.05;;;9.13;;
52456;SDS011;38369;52.840;7.082;2023-04-24T04:46:29;10.88;;;8.98;;
52456;SDS011;38369;52.840;7.082;2023-04-24T04:48:57;15.07;;;10.82;;
52456;SDS011;38369;52.840;7.082;2023-04-24T04:51:23;13.57;;;9.90;;
52456;SDS011;38369;52.840;7.082;2023-04-24T04:53:49;14.23;;;10.63;;
52456;SDS011;38369;52.840;7.082;2023-04-24T04:56:15;13.68;;;9.88;;
52456;SDS011;38369;52.840;7.082;2023-04-24T04:58:41;13.45;;;9.85;;
52456;SDS011;38369;52.840;7.082;2023-04-24T05:01:07;12.80;;;9.85;;
52456;SDS011;38369;52.840;7.082;2023-04-24T05:03:33;10.82;;;9.65;;
52456;SDS011;38369;52.840;7.082;2023-04-24T05:05:59;15.07;;;9.07;;
52456;SDS011;38369;52.840;7.082;2023-04-24T05:08:25;10.90;;;8.70;;
52456;SDS011;38369;52.840;7.082;2023-04-24T05:10:51;10.57;;;8.23;;
52456;SDS011;38369;52.840;7.082;2023-04-24T05:13:17;8.85;;;7.72;;
52456;SDS011;38369;52.840;7.082;2023-04-24T05:15:43;8.73;;;7.22;;
52456;SDS011;38369;52.840;7.082;2023-04-24T05:18:09;9.45;;;8.02;;
52456;SDS011;38369;52.840;7.082;2023-04-24T05:20:35;8.32;;;7.03;;
52456;SDS011;38369;52.840;7.082;2023-04-24T05:23:02;8.40;;;6.97;;
52456;SDS011;38369;52.840;7.082;2023-04-24T05:25:28;7.70;;;6.90;;
52456;SDS011;38369;52.840;7.082;2023-04-24T05:27:54;8.50;;;6.93;;
52456;SDS011;38369;52.840;7.082;2023-04-24T05:30:20;9.10;;;7.22;;
52456;SDS011;38369;52.840;7.082;2023-04-24T05:32:46;10.13;;;6.78;;
52456;SDS011;38369;52.840;7.082;2023-04-24T05:35:12;7.53;;;6.57;;
52456;SDS011;38369;52.840;7.082;2023-04-24T05:37:38;8.95;;;6.55;;
52456;SDS011;38369;52.840;7.082;2023-04-24T05:40:04;6.82;;;5.97;;
52456;SDS011;38369;52.840;7.082;2023-04-24T05:42:31;6.10;;;5.07;;
52456;SDS011;38369;52.840;7.082;2023-04-24T05:44:57;6.88;;;5.53;;
52456;SDS011;38369;52.840;7.082;2023-04-24T05:47:23;4.50;;;3.97;;
52456;SDS011;38369;52.840;7.082;2023-04-24T05:49:50;5.00;;;4.03;;
52456;SDS011;38369;52.840;7.082;2023-04-24T05:52:16;3.67;;;3.08;;
52456;SDS011;38369;52.840;7.082;2023-04-24T05:54:42;4.70;;;3.55;;
52456;SDS011;38369;52.840;7.082;2023-04-24T05:57:08;5.30;;;3.70;;
52456;SDS011;38369;52.840;7.082;2023-04-24T05:59:36;6.72;;;4.25;;
52456;SDS011;38369;52.840;7.082;2023-04-24T06:02:02;4.93;;;4.03;;
52456;SDS011;38369;52.840;7.082;2023-04-24T06:04:28;13.25;;;4.95;;
52456;SDS011;38369;52.840;7.082;2023-04-24T06:06:54;5.95;;;4.95;;
52456;SDS011;38369;52.840;7.082;2023-04-24T06:09:24;6.50;;;4.57;;
52456;SDS011;38369;52.840;7.082;2023-04-24T06:11:50;7.03;;;4.38;;
52456;SDS011;38369;52.840;7.082;2023-04-24T06:14:18;5.20;;;4.00;;
52456;SDS011;38369;52.840;7.082;2023-04-24T06:16:45;4.78;;;4.18;;
52456;SDS011;38369;52.840;7.082;2023-04-24T06:19:11;3.83;;;3.20;;
52456;SDS011;38369;52.840;7.082;2023-04-24T06:21:37;4.10;;;3.28;;
52456;SDS011;38369;52.840;7.082;2023-04-24T06:24:03;3.75;;;3.20;;
52456;SDS011;38369;52.840;7.082;2023-04-24T06:26:29;3.85;;;2.97;;
52456;SDS011;38369;52.840;7.082;2023-04-24T06:28:55;3.22;;;2.42;;
52456;SDS011;38369;52.840;7.082;2023-04-24T06:31:23;3.85;;;2.78;;
52456;SDS011;38369;52.840;7.082;2023-04-24T06:33:49;3.15;;;2.50;;
52456;SDS011;38369;52.840;7.082;2023-04-24T06:36:15;3.55;;;2.85;;
52456;SDS011;38369;52.840;7.082;2023-04-24T06:38:42;5.60;;;3.55;;
52456;SDS011;38369;52.840;7.082;2023-04-24T06:41:09;4.00;;;2.90;;
52456;SDS011;38369;52.840;7.082;2023-04-24T06:43:35;4.05;;;3.10;;
52456;SDS011;38369;52.840;7.082;2023-04-24T06:46:01;4.50;;;3.10;;
52456;SDS011;38369;52.840;7.082;2023-04-24T06:48:28;4.88;;;3.22;;
52456;SDS011;38369;52.840;7.082;2023-04-24T06:50:54;4.38;;;2.80;;
52456;SDS011;38369;52.840;7.082;2023-04-24T06:53:20;5.65;;;3.13;;
52456;SDS011;38369;52.840;7.082;2023-04-24T06:55:46;5.63;;;4.40;;
52456;SDS011;38369;52.840;7.082;2023-04-24T06:58:13;6.20;;;4.50;;
52456;SDS011;38369;52.840;7.082;2023-04-24T07:00:40;7.25;;;5.18;;
52456;SDS011;38369;52.840;7.082;2023-04-24T07:03:06;9.45;;;6.63;;
52456;SDS011;38369;52.840;7.082;2023-04-24T07:05:33;7.57;;;5.50;;
52456;SDS011;38369;52.840;7.082;2023-04-24T07:08:00;7.85;;;6.07;;
52456;SDS011;38369;52.840;7.082;2023-04-24T07:10:27;8.20;;;6.38;;
52456;SDS011;38369;52.840;7.082;2023-04-24T07:12:53;11.40;;;8.35;;
52456;SDS011;38369;52.840;7.082;2023-04-24T07:15:19;11.90;;;9.35;;
52456;SDS011;38369;52.840;7.082;2023-04-24T07:17:45;12.73;;;9.68;;
52456;SDS011;38369;52.840;7.082;2023-04-24T07:20:11;9.95;;;7.43;;
52456;SDS011;38369;52.840;7.082;2023-04-24T07:22:39;9.00;;;7.25;;
52456;SDS011;38369;52.840;7.082;2023-04-24T07:25:06;7.72;;;6.43;;
52456;SDS011;38369;52.840;7.082;2023-04-24T07:27:32;8.85;;;7.18;;
52456;SDS011;38369;52.840;7.082;2023-04-24T07:29:58;11.05;;;8.27;;
52456;SDS011;38369;52.840;7.082;2023-04-24T07:32:24;9.52;;;7.70;;
52456;SDS011;38369;52.840;7.082;2023-04-24T07:34:50;12.90;;;8.52;;
52456;SDS011;38369;52.840;7.082;2023-04-24T07:37:16;13.07;;;9.20;;
52456;SDS011;38369;52.840;7.082;2023-04-24T07:39:43;10.40;;;8.65;;
52456;SDS011;38369;52.840;7.082;2023-04-24T07:42:09;11.52;;;8.23;;
52456;SDS011;38369;52.840;7.082;2023-04-24T07:44:35;11.68;;;8.57;;
52456;SDS011;38369;52.840;7.082;2023-04-24T07:47:01;8.48;;;6.63;;
52456;SDS011;38369;52.840;7.082;2023-04-24T07:49:27;9.73;;;6.55;;
52456;SDS011;38369;52.840;7.082;2023-04-24T07:51:53;8.23;;;5.45;;
52456;SDS011;38369;52.840;7.082;2023-04-24T07:54:19;8.93;;;6.55;;
52456;SDS011;38369;52.840;7.082;2023-04-24T07:56:45;7.28;;;4.95;;
52456;SDS011;38369;52.840;7.082;2023-04-24T07:59:12;7.38;;;4.68;;
52456;SDS011;38369;52.840;7.082;2023-04-24T08:01:38;5.63;;;4.35;;
52456;SDS011;38369;52.840;7.082;2023-04-24T08:04:04;5.97;;;3.58;;
52456;SDS011;38369;52.840;7.082;2023-04-24T08:06:30;4.43;;;3.58;;
52456;SDS011;38369;52.840;7.082;2023-04-24T08:08:57;5.57;;;3.85;;
52456;SDS011;38369;52.840;7.082;2023-04-24T08:11:23;6.25;;;3.58;;
52456;SDS011;38369;52.840;7.082;2023-04-24T08:13:49;3.67;;;2.75;;
52456;SDS011;38369;52.840;7.082;2023-04-24T08:16:16;4.25;;;2.78;;
52456;SDS011;38369;52.840;7.082;2023-04-24T08:18:42;3.50;;;2.78;;
52456;SDS011;38369;52.840;7.082;2023-04-24T08:21:08;3.38;;;2.35;;
52456;SDS011;38369;52.840;7.082;2023-04-24T08:23:34;2.88;;;2.03;;
52456;SDS011;38369;52.840;7.082;2023-04-24T08:26:00;4.30;;;2.10;;
52456;SDS011;38369;52.840;7.082;2023-04-24T08:28:26;4.97;;;3.60;;
52456;SDS011;38369;52.840;7.082;2023-04-24T08:30:52;6.65;;;3.67;;
52456;SDS011;38369;52.840;7.082;2023-04-24T08:33:21;6.20;;;3.67;;
52456;SDS011;38369;52.840;7.082;2023-04-24T08:35:47;5.22;;;3.50;;
52456;SDS011;38369;52.840;7.082;2023-04-24T08:38:13;4.97;;;2.95;;
52456;SDS011;38369;52.840;7.082;2023-04-24T08:40:39;3.08;;;2.33;;
52456;SDS011;38369;52.840;7.082;2023-04-24T08:43:06;3.25;;;1.52;;
52456;SDS011;38369;52.840;7.082;2023-04-24T08:45:32;3.75;;;2.00;;
52456;SDS011;38369;52.840;7.082;2023-04-24T08:47:58;5.10;;;2.17;;
52456;SDS011;38369;52.840;7.082;2023-04-24T08:50:26;5.75;;;2.58;;
52456;SDS011;38369;52.840;7.082;2023-04-24T08:52:52;4.35;;;2.10;;
52456;SDS011;38369;52.840;7.082;2023-04-24T08:55:19;4.47;;;2.28;;
52456;SDS011;38369;52.840;7.082;2023-04-24T08:57:46;3.97;;;2.70;;
52456;SDS011;38369;52.840;7.082;2023-04-24T09:00:16;3.60;;;2.58;;
52456;SDS011;38369;52.840;7.082;2023-04-24T09:02:42;5.80;;;2.88;;
52456;SDS011;38369;52.840;7.082;2023-04-24T09:05:09;4.45;;;2.40;;
52456;SDS011;38369;52.840;7.082;2023-04-24T09:07:36;4.05;;;2.20;;
52456;SDS011;38369;52.840;7.082;2023-04-24T09:10:05;7.20;;;2.97;;
52456;SDS011;38369;52.840;7.082;2023-04-24T09:12:32;3.92;;;3.05;;
52456;SDS011;38369;52.840;7.082;2023-04-24T09:15:00;5.95;;;3.75;;
52456;SDS011;38369;52.840;7.082;2023-04-24T09:17:26;8.70;;;5.38;;
52456;SDS011;38369;52.840;7.082;2023-04-24T09:19:53;12.98;;;7.60;;
52456;SDS011;38369;52.840;7.082;2023-04-24T09:22:19;12.88;;;7.78;;
52456;SDS011;38369;52.840;7.082;2023-04-24T09:24:46;15.30;;;8.88;;
52456;SDS011;38369;52.840;7.082;2023-04-24T09:27:12;14.60;;;9.45;;
52456;SDS011;38369;52.840;7.082;2023-04-24T09:29:42;23.25;;;10.50;;
52456;SDS011;38369;52.840;7.082;2023-04-24T09:32:19;17.48;;;10.55;;
52456;SDS011;38369;52.840;7.082;2023-04-24T09:34:47;16.13;;;10.07;;
52456;SDS011;38369;52.840;7.082;2023-04-24T09:37:29;20.55;;;10.38;;
52456;SDS011;38369;52.840;7.082;2023-04-24T09:42:56;20.42;;;10.48;;
52456;SDS011;38369;52.840;7.082;2023-04-24T09:45:35;21.77;;;13.20;;
52456;SDS011;38369;52.840;7.082;2023-04-24T09:48:01;18.70;;;11.65;;
52456;SDS011;38369;52.840;7.082;2023-04-24T09:50:29;20.23;;;11.88;;
52456;SDS011;38369;52.840;7.082;2023-04-24T09:53:03;16.92;;;11.30;;
52456;SDS011;38369;52.840;7.082;2023-04-24T09:55:30;25.67;;;13.02;;
52456;SDS011;38369;52.840;7.082;2023-04-24T09:57:59;24.92;;;12.45;;
52456;SDS011;38369;52.840;7.082;2023-04-24T10:00:27;22.50;;;13.27;;
52456;SDS011;38369;52.840;7.082;2023-04-24T10:03:00;20.67;;;12.50;;
52456;SDS011;38369;52.840;7.082;2023-04-24T10:05:28;20.92;;;12.98;;
52456;SDS011;38369;52.840;7.082;2023-04-24T10:08:02;20.25;;;12.60;;
52456;SDS011;38369;52.840;7.082;2023-04-24T10:10:30;20.58;;;13.57;;
52456;SDS011;38369;52.840;7.082;2023-04-24T10:12:56;27.30;;;16.55;;
52456;SDS011;38369;52.840;7.082;2023-04-24T10:15:22;22.58;;;13.02;;
52456;SDS011;38369;52.840;7.082;2023-04-24T10:17:49;22.23;;;13.40;;
52456;SDS011;38369;52.840;7.082;2023-04-24T10:20:21;17.85;;;12.48;;
52456;SDS011;38369;52.840;7.082;2023-04-24T10:22:48;20.17;;;12.95;;
52456;SDS011;38369;52.840;7.082;2023-04-24T10:25:18;21.52;;;13.15;;
52456;SDS011;38369;52.840;7.082;2023-04-24T10:27:45;20.73;;;13.68;;
52456;SDS011;38369;52.840;7.082;2023-04-24T10:30:12;21.05;;;13.68;;
52456;SDS011;38369;52.840;7.082;2023-04-24T10:32:38;17.50;;;12.20;;
52456;SDS011;38369;52.840;7.082;2023-04-24T10:35:08;18.20;;;11.85;;
52456;SDS011;38369;52.840;7.082;2023-04-24T10:37:35;13.90;;;9.60;;
52456;SDS011;38369;52.840;7.082;2023-04-24T10:40:02;16.70;;;11.52;;
52456;SDS011;38369;52.840;7.082;2023-04-24T10:42:28;25.20;;;13.77;;
52456;SDS011;38369;52.840;7.082;2023-04-24T10:44:55;16.60;;;12.45;;
52456;SDS011;38369;52.840;7.082;2023-04-24T10:47:23;21.38;;;11.93;;
52456;SDS011;38369;52.840;7.082;2023-04-24T10:49:50;18.55;;;11.80;;
52456;SDS011;38369;52.840;7.082;2023-04-24T10:52:17;20.63;;;12.98;;
52456;SDS011;38369;52.840;7.082;2023-04-24T10:54:46;18.40;;;13.48;;
52456;SDS011;38369;52.840;7.082;2023-04-24T10:59:44;18.45;;;10.52;;
52456;SDS011;38369;52.840;7.082;2023-04-24T11:02:10;17.98;;;9.98;;
52456;SDS011;38369;52.840;7.082;2023-04-24T11:04:36;15.35;;;10.77;;
52456;SDS011;38369;52.840;7.082;2023-04-24T11:07:02;19.00;;;10.55;;
52456;SDS011;38369;52.840;7.082;2023-04-24T11:09:32;16.33;;;9.65;;
52456;SDS011;38369;52.840;7.082;2023-04-24T11:12:04;18.98;;;10.00;;
52456;SDS011;38369;52.840;7.082;2023-04-24T11:17:37;19.20;;;9.88;;
52456;SDS011;38369;52.840;7.082;2023-04-24T11:20:09;12.95;;;8.40;;
52456;SDS011;38369;52.840;7.082;2023-04-24T11:25:01;9.65;;;7.32;;
52456;SDS011;38369;52.840;7.082;2023-04-24T11:27:32;11.50;;;6.43;;
52456;SDS011;38369;52.840;7.082;2023-04-24T11:29:59;16.63;;;6.65;;
52456;SDS011;38369;52.840;7.082;2023-04-24T11:35:05;15.18;;;7.25;;
52456;SDS011;38369;52.840;7.082;2023-04-24T11:37:39;11.00;;;6.57;;
52456;SDS011;38369;52.840;7.082;2023-04-24T11:40:10;11.45;;;7.05;;
52456;SDS011;38369;52.840;7.082;2023-04-24T11:42:37;14.27;;;5.97;;
52456;SDS011;38369;52.840;7.082;2023-04-24T11:45:24;15.18;;;5.82;;
52456;SDS011;38369;52.840;7.082;2023-04-24T11:47:49;9.13;;;4.95;;
52456;SDS011;38369;52.840;7.082;2023-04-24T11:50:17;8.43;;;5.13;;
52456;SDS011;38369;52.840;7.082;2023-04-24T11:52:44;7.60;;;4.75;;
52456;SDS011;38369;52.840;7.082;2023-04-24T11:57:42;7.07;;;3.75;;
52456;SDS011;38369;52.840;7.082;2023-04-24T12:00:14;13.90;;;4.03;;
52456;SDS011;38369;52.840;7.082;2023-04-24T12:02:41;11.48;;;3.97;;
52456;SDS011;38369;52.840;7.082;2023-04-24T12:05:07;10.38;;;4.15;;
52456;SDS011;38369;52.840;7.082;2023-04-24T12:07:39;9.35;;;4.45;;
52456;SDS011;38369;52.840;7.082;2023-04-24T12:10:07;12.18;;;4.45;;
52456;SDS011;38369;52.840;7.082;2023-04-24T12:12:34;10.68;;;4.00;;
52456;SDS011;38369;52.840;7.082;2023-04-24T12:15:00;14.13;;;4.05;;
52456;SDS011;38369;52.840;7.082;2023-04-24T12:17:30;13.30;;;4.18;;
52456;SDS011;38369;52.840;7.082;2023-04-24T12:20:04;11.65;;;4.55;;
52456;SDS011;38369;52.840;7.082;2023-04-24T12:25:16;11.25;;;3.95;;
52456;SDS011;38369;52.840;7.082;2023-04-24T12:27:44;10.02;;;2.97;;
52456;SDS011;38369;52.840;7.082;2023-04-24T12:30:12;10.45;;;2.67;;
52456;SDS011;38369;52.840;7.082;2023-04-24T12:32:45;11.15;;;3.25;;
52456;SDS011;38369;52.840;7.082;2023-04-24T12:35:12;11.43;;;3.50;;
52456;SDS011;38369;52.840;7.082;2023-04-24T12:37:38;5.57;;;2.95;;
52456;SDS011;38369;52.840;7.082;2023-04-24T12:40:05;9.10;;;3.13;;
52456;SDS011;38369;52.840;7.082;2023-04-24T12:42:32;6.18;;;3.00;;
52456;SDS011;38369;52.840;7.082;2023-04-24T12:44:59;6.53;;;3.10;;
52456;SDS011;38369;52.840;7.082;2023-04-24T12:47:26;9.43;;;3.90;;
52456;SDS011;38369;52.840;7.082;2023-04-24T12:49:52;7.25;;;3.00;;
52456;SDS011;38369;52.840;7.082;2023-04-24T12:52:20;7.30;;;2.60;;
52456;SDS011;38369;52.840;7.082;2023-04-24T12:54:46;10.07;;;2.65;;
52456;SDS011;38369;52.840;7.082;2023-04-24T12:57:12;6.03;;;2.08;;
52456;SDS011;38369;52.840;7.082;2023-04-24T12:59:39;6.15;;;1.98;;
52456;SDS011;38369;52.840;7.082;2023-04-24T13:02:05;12.65;;;2.83;;
52456;SDS011;38369;52.840;7.082;2023-04-24T13:04:32;10.57;;;2.75;;
52456;SDS011;38369;52.840;7.082;2023-04-24T13:06:58;6.68;;;2.47;;
52456;SDS011;38369;52.840;7.082;2023-04-24T13:09:24;11.75;;;3.55;;
52456;SDS011;38369;52.840;7.082;2023-04-24T13:11:50;11.40;;;2.80;;
52456;SDS011;38369;52.840;7.082;2023-04-24T13:14:16;6.65;;;2.50;;
52456;SDS011;38369;52.840;7.082;2023-04-24T13:16:42;7.70;;;2.28;;
52456;SDS011;38369;52.840;7.082;2023-04-24T13:19:08;7.47;;;2.38;;
52456;SDS011;38369;52.840;7.082;2023-04-24T13:21:35;6.20;;;1.98;;
52456;SDS011;38369;52.840;7.082;2023-04-24T13:24:01;6.68;;;2.03;;
52456;SDS011;38369;52.840;7.082;2023-04-24T13:26:29;4.97;;;1.90;;
52456;SDS011;38369;52.840;7.082;2023-04-24T13:28:55;8.07;;;2.45;;
52456;SDS011;38369;52.840;7.082;2023-04-24T13:31:21;4.78;;;1.30;;
52456;SDS011;38369;52.840;7.082;2023-04-24T13:33:48;2.38;;;1.20;;
52456;SDS011;38369;52.840;7.082;2023-04-24T13:36:14;4.50;;;1.52;;
52456;SDS011;38369;52.840;7.082;2023-04-24T13:38:41;2.80;;;1.10;;
52456;SDS011;38369;52.840;7.082;2023-04-24T13:41:07;2.45;;;1.20;;
52456;SDS011;38369;52.840;7.082;2023-04-24T13:43:33;5.35;;;1.27;;
52456;SDS011;38369;52.840;7.082;2023-04-24T13:46:00;3.95;;;1.30;;
52456;SDS011;38369;52.840;7.082;2023-04-24T13:48:28;6.32;;;1.40;;
52456;SDS011;38369;52.840;7.082;2023-04-24T13:50:54;5.75;;;1.90;;
52456;SDS011;38369;52.840;7.082;2023-04-24T13:53:20;4.13;;;1.70;;
52456;SDS011;38369;52.840;7.082;2023-04-24T13:55:46;4.13;;;1.25;;
52456;SDS011;38369;52.840;7.082;2023-04-24T13:58:12;7.10;;;1.73;;
52456;SDS011;38369;52.840;7.082;2023-04-24T14:00:38;5.93;;;1.70;;
52456;SDS011;38369;52.840;7.082;2023-04-24T14:03:04;4.32;;;1.00;;
52456;SDS011;38369;52.840;7.082;2023-04-24T14:05:30;3.47;;;1.50;;
52456;SDS011;38369;52.840;7.082;2023-04-24T14:07:56;10.57;;;1.58;;
52456;SDS011;38369;52.840;7.082;2023-04-24T14:10:22;4.30;;;1.45;;
52456;SDS011;38369;52.840;7.082;2023-04-24T14:12:49;5.93;;;1.58;;
52456;SDS011;38369;52.840;7.082;2023-04-24T14:15:15;5.45;;;1.60;;
52456;SDS011;38369;52.840;7.082;2023-04-24T14:17:41;6.03;;;1.63;;
52456;SDS011;38369;52.840;7.082;2023-04-24T14:20:07;2.33;;;1.00;;
52456;SDS011;38369;52.840;7.082;2023-04-24T14:22:34;5.88;;;1.80;;
52456;SDS011;38369;52.840;7.082;2023-04-24T14:25:00;5.45;;;1.55;;
52456;SDS011;38369;52.840;7.082;2023-04-24T14:27:26;6.28;;;1.58;;
52456;SDS011;38369;52.840;7.082;2023-04-24T14:29:52;4.45;;;1.23;;
52456;SDS011;38369;52.840;7.082;2023-04-24T14:32:18;5.18;;;1.30;;
52456;SDS011;38369;52.840;7.082;2023-04-24T14:34:44;4.22;;;1.60;;
52456;SDS011;38369;52.840;7.082;2023-04-24T14:37:10;4.45;;;1.38;;
52456;SDS011;38369;52.840;7.082;2023-04-24T14:39:36;5.35;;;1.70;;
52456;SDS011;38369;52.840;7.082;2023-04-24T14:42:02;4.50;;;1.35;;
52456;SDS011;38369;52.840;7.082;2023-04-24T14:44:28;8.15;;;1.50;;
52456;SDS011;38369;52.840;7.082;2023-04-24T14:46:54;4.53;;;1.70;;
52456;SDS011;38369;52.840;7.082;2023-04-24T14:49:20;5.53;;;1.40;;
52456;SDS011;38369;52.840;7.082;2023-04-24T14:51:46;3.95;;;1.50;;
52456;SDS011;38369;52.840;7.082;2023-04-24T14:54:12;5.72;;;1.75;;
52456;SDS011;38369;52.840;7.082;2023-04-24T14:56:38;6.03;;;1.63;;
52456;SDS011;38369;52.840;7.082;2023-04-24T14:59:06;5.88;;;1.50;;